Time;durP1;ratioP1;P1;durP2;ratioP2;P2;SDS_P1;SDS_P2;PMS_P1;PMS_P2;Temp;Humidity;BMP_temperature;BMP_pressure;BME280_temperature;BME280_humidity;BME280_pressure;Samples;Min_cycle;Max_cycle;Signal;HPM_P1;HPM_P2
2023/01/11 00:00:39;;;;;;;13.23;8.10;;;9.70;99.90;;;;;;5110949;28;20289;-71
2023/01/11 00:03:06;;;;;;;11.90;7.40;;;9.70;99.90;;;;;;5088603;28;20224;-70
2023/01/11 00:05:40;;;;;;;9.90;8.27;;;9.70;99.90;;;;;;5110364;28;20191;-69
2023/01/11 00:08:07;;;;;;;11.33;8.00;;;9.80;99.90;;;;;;5086443;28;20199;-70
2023/01/11 00:10:34;;;;;;;11.40;8.30;;;9.80;99.90;;;;;;5105793;28;20208;-69
2023/01/11 00:13:02;;;;;;;11.00;7.67;;;9.80;99.90;;;;;;5111775;27;20199;-70
2023/01/11 00:15:29;;;;;;;12.17;7.83;;;9.80;99.90;;;;;;5105093;28;20238;-70
2023/01/11 00:17:56;;;;;;;10.37;7.73;;;9.90;99.90;;;;;;5107360;28;20695;-70
2023/01/11 00:20:23;;;;;;;11.00;8.50;;;9.90;99.90;;;;;;5106750;28;20203;-69
2023/01/11 00:22:50;;;;;;;9.10;7.53;;;9.90;99.90;;;;;;5107407;28;20203;-69
2023/01/11 00:25:20;;;;;;;10.23;7.00;;;10.00;99.90;;;;;;5105977;28;20206;-70
2023/01/11 00:27:48;;;;;;;12.70;7.67;;;10.00;99.90;;;;;;5107590;28;20663;-70
2023/01/11 00:30:16;;;;;;;8.70;6.40;;;10.00;99.90;;;;;;5106173;28;20253;-70
2023/01/11 00:32:48;;;;;;;9.13;6.80;;;10.00;99.90;;;;;;5109002;28;20217;-70
2023/01/11 00:35:15;;;;;;;10.60;7.20;;;10.00;99.90;;;;;;5108023;28;20222;-70
2023/01/11 00:37:42;;;;;;;11.87;6.77;;;10.00;99.90;;;;;;5106897;28;20528;-70
2023/01/11 00:40:09;;;;;;;10.07;7.50;;;10.10;99.90;;;;;;5107989;28;20206;-70
2023/01/11 00:48:09;;;;;;;10.50;8.17;;;10.10;99.90;;;;;;5106577;28;20223;-71
2023/01/11 00:50:38;;;;;;;12.03;7.90;;;10.20;99.90;;;;;;5110461;28;20706;-70
2023/01/11 00:53:08;;;;;;;9.03;6.87;;;10.20;99.90;;;;;;5089806;28;20225;-70
2023/01/11 00:55:35;;;;;;;11.40;7.33;;;10.20;99.90;;;;;;5102874;28;20196;-71
2023/01/11 00:58:03;;;;;;;9.80;7.70;;;10.30;99.90;;;;;;5106525;28;20218;-71
2023/01/11 01:00:30;;;;;;;9.77;7.23;;;10.30;99.90;;;;;;5110189;28;20299;-71
2023/01/11 01:02:57;;;;;;;14.60;7.27;;;10.30;99.90;;;;;;5106020;28;20243;-72
2023/01/11 01:05:24;;;;;;;9.27;7.47;;;10.30;99.90;;;;;;5103676;28;20225;-70
2023/01/11 01:07:50;;;;;;;10.30;7.43;;;10.40;99.90;;;;;;5100788;28;20203;-71
2023/01/11 01:10:18;;;;;;;12.30;7.00;;;10.40;99.90;;;;;;5106656;28;20261;-70
2023/01/11 01:15:31;;;;;;;9.37;7.37;;;10.40;99.90;;;;;;5105749;28;20203;-70
2023/01/11 01:18:00;;;;;;;11.77;7.10;;;10.40;99.90;;;;;;5101421;28;20259;-70
2023/01/11 01:20:27;;;;;;;10.77;7.70;;;10.40;99.90;;;;;;5086623;28;20210;-70
2023/01/11 01:22:54;;;;;;;9.50;7.00;;;10.40;99.90;;;;;;5107204;28;20219;-70
2023/01/11 01:25:20;;;;;;;9.77;7.03;;;10.40;99.90;;;;;;5105787;28;20207;-70
2023/01/11 01:27:47;;;;;;;12.73;7.33;;;10.50;99.90;;;;;;5105408;28;20207;-70
2023/01/11 01:30:14;;;;;;;8.13;6.90;;;10.50;99.90;;;;;;5107623;28;20199;-69
2023/01/11 01:32:40;;;;;;;10.37;7.10;;;10.50;99.90;;;;;;5101706;28;20216;-70
2023/01/11 01:35:10;;;;;;;8.07;6.90;;;10.50;99.90;;;;;;5102778;28;20207;-70
2023/01/11 01:37:37;;;;;;;10.03;6.90;;;10.50;99.90;;;;;;5109558;28;20199;-70
2023/01/11 01:40:04;;;;;;;8.40;6.67;;;10.50;99.90;;;;;;5105165;28;20214;-70
2023/01/11 01:42:31;;;;;;;8.93;6.03;;;10.60;99.90;;;;;;5107088;28;20195;-70
2023/01/11 01:45:02;;;;;;;11.67;6.30;;;10.60;99.90;;;;;;5111452;28;20196;-70
2023/01/11 01:47:35;;;;;;;8.40;5.70;;;10.60;99.90;;;;;;5110099;28;20294;-69
2023/01/11 01:50:08;;;;;;;6.33;5.37;;;10.60;99.90;;;;;;5112505;28;20681;-71
2023/01/11 01:52:35;;;;;;;8.33;4.90;;;10.60;99.90;;;;;;5114213;28;20218;-70
2023/01/11 01:55:07;;;;;;;7.60;4.87;;;10.60;99.90;;;;;;5112067;28;20679;-70
2023/01/11 01:57:36;;;;;;;6.50;4.73;;;10.60;99.90;;;;;;5111649;28;20195;-70
2023/01/11 02:00:07;;;;;;;6.67;4.03;;;10.60;99.90;;;;;;5112521;28;20206;-70
2023/01/11 02:02:36;;;;;;;5.67;4.10;;;10.70;99.90;;;;;;5106813;28;20294;-70
2023/01/11 02:05:04;;;;;;;6.07;4.10;;;10.60;99.90;;;;;;5112415;28;20718;-70
2023/01/11 02:07:34;;;;;;;4.30;3.50;;;10.70;99.90;;;;;;5106589;28;20203;-70
2023/01/11 02:10:11;;;;;;;5.50;3.30;;;10.70;99.90;;;;;;5111587;28;20199;-70
2023/01/11 02:12:48;;;;;;;6.73;3.40;;;10.70;99.90;;;;;;5112331;28;20206;-71
2023/01/11 02:15:17;;;;;;;4.27;2.90;;;10.70;99.90;;;;;;5107432;28;20201;-70
2023/01/11 02:17:47;;;;;;;3.10;2.70;;;10.70;99.90;;;;;;5077825;28;20314;-69
2023/01/11 02:20:30;;;;;;;2.73;2.53;;;10.70;99.90;;;;;;5112174;28;20199;-70
2023/01/11 02:23:38;;;;;;;3.80;2.40;;;10.80;99.90;;;;;;5112935;28;20219;-70
2023/01/11 02:26:25;;;;;;;6.33;2.73;;;10.80;99.90;;;;;;5106757;28;20283;-71
2023/01/11 02:29:04;;;;;;;3.90;2.63;;;10.80;99.90;;;;;;5109933;28;20200;-72
2023/01/11 02:31:42;;;;;;;2.40;2.20;;;10.80;99.90;;;;;;5111505;28;20591;-71
2023/01/11 02:34:17;;;;;;;2.20;2.00;;;10.90;99.90;;;;;;5107925;28;20205;-70
2023/01/11 02:37:11;;;;;;;4.17;2.20;;;10.90;99.90;;;;;;5108439;28;20199;-71
2023/01/11 02:40:03;;;;;;;2.07;1.80;;;10.80;99.90;;;;;;5112091;28;20207;-70
2023/01/11 02:45:59;;;;;;;2.73;1.70;;;10.90;99.90;;;;;;5074703;28;20278;-70
2023/01/11 02:48:43;;;;;;;3.40;1.60;;;10.90;99.90;;;;;;5089577;28;20312;-70
2023/01/11 02:51:34;;;;;;;2.63;1.90;;;10.90;99.90;;;;;;5090955;28;20611;-70
2023/01/11 02:54:05;;;;;;;2.03;1.83;;;10.90;99.90;;;;;;5109559;28;20647;-70
2023/01/11 02:56:37;;;;;;;1.70;1.60;;;10.90;99.90;;;;;;5107819;28;20207;-70
2023/01/11 02:59:09;;;;;;;1.77;1.50;;;10.90;99.90;;;;;;5109861;28;20235;-70
2023/01/11 03:01:54;;;;;;;1.63;1.50;;;10.90;99.90;;;;;;5111310;28;20601;-70
2023/01/11 03:04:31;;;;;;;2.40;1.40;;;10.90;99.90;;;;;;5109318;28;20271;-71
2023/01/11 03:07:17;;;;;;;1.40;1.30;;;11.00;99.90;;;;;;5110218;28;20198;-70
2023/01/11 03:10:11;;;;;;;1.80;1.40;;;11.00;99.90;;;;;;5109468;28;20207;-70
2023/01/11 03:12:56;;;;;;;3.27;1.60;;;10.90;99.90;;;;;;5108167;28;20210;-70
2023/01/11 03:15:51;;;;;;;1.70;1.60;;;10.90;99.90;;;;;;5090905;28;20254;-72
2023/01/11 03:18:27;;;;;;;3.43;1.63;;;10.90;99.90;;;;;;5108594;28;20222;-70
2023/01/11 03:21:22;;;;;;;4.57;1.70;;;11.00;99.90;;;;;;5110009;28;20278;-70
2023/01/11 03:24:04;;;;;;;3.10;2.40;;;11.00;99.90;;;;;;5087348;28;20243;-70
2023/01/11 03:27:06;;;;;;;3.20;2.43;;;11.00;99.90;;;;;;5104741;28;20203;-70
2023/01/11 03:29:40;;;;;;;2.60;2.40;;;11.00;99.90;;;;;;5102641;28;20199;-71
2023/01/11 03:32:12;;;;;;;4.00;2.67;;;11.00;99.90;;;;;;5108711;28;20222;-70
2023/01/11 03:34:45;;;;;;;2.53;2.33;;;11.10;99.90;;;;;;5110703;28;20305;-71
2023/01/11 03:37:21;;;;;;;4.47;2.50;;;11.10;99.90;;;;;;5107074;28;20240;-71
2023/01/11 03:40:04;;;;;;;3.30;2.60;;;11.10;99.90;;;;;;5107933;28;20207;-71
2023/01/11 03:42:33;;;;;;;3.60;2.40;;;11.10;99.90;;;;;;5108209;28;20197;-71
2023/01/11 03:45:04;;;;;;;3.20;2.30;;;11.20;99.90;;;;;;5108513;28;20306;-71
2023/01/11 03:47:34;;;;;;;2.23;1.90;;;11.20;99.90;;;;;;5107393;28;20302;-71
2023/01/11 03:50:09;;;;;;;4.10;2.53;;;11.20;99.90;;;;;;5109533;28;20229;-69
2023/01/11 03:52:41;;;;;;;3.10;1.97;;;11.30;99.90;;;;;;5091627;28;20350;-69
2023/01/11 03:55:11;;;;;;;3.10;2.80;;;11.30;99.90;;;;;;5109554;28;20256;-69
2023/01/11 03:57:46;;;;;;;2.20;2.00;;;11.30;99.90;;;;;;5111199;28;20211;-69
2023/01/11 04:00:12;;;;;;;2.63;2.13;;;11.30;99.90;;;;;;5109138;28;20194;-69
2023/01/11 04:02:40;;;;;;;3.70;2.40;;;11.30;99.90;;;;;;5092495;28;20215;-69
2023/01/11 04:05:09;;;;;;;4.00;2.67;;;11.30;99.90;;;;;;5111621;28;20226;-71
2023/01/11 04:07:36;;;;;;;4.57;2.80;;;11.40;99.90;;;;;;5106762;28;20203;-69
2023/01/11 04:10:03;;;;;;;3.50;2.70;;;11.40;99.90;;;;;;5107649;28;20669;-69
2023/01/11 04:12:30;;;;;;;3.60;2.60;;;11.40;99.90;;;;;;5088465;28;20199;-69
2023/01/11 04:14:56;;;;;;;2.97;2.67;;;11.40;99.90;;;;;;5109592;28;20195;-70
2023/01/11 04:17:23;;;;;;;4.30;2.90;;;11.40;99.90;;;;;;5091908;28;20655;-69
2023/01/11 04:19:50;;;;;;;4.50;2.70;;;11.40;99.90;;;;;;5092286;28;20564;-69
2023/01/11 04:22:16;;;;;;;4.03;2.90;;;11.50;99.90;;;;;;5107172;28;20199;-71
2023/01/11 04:24:43;;;;;;;5.00;3.13;;;11.50;99.90;;;;;;5109627;28;20613;-70
2023/01/11 04:27:10;;;;;;;3.80;2.90;;;11.50;99.90;;;;;;5106557;28;20202;-70
2023/01/11 04:29:36;;;;;;;4.73;3.03;;;11.50;99.90;;;;;;5108933;28;20199;-69
2023/01/11 04:32:03;;;;;;;3.73;3.10;;;11.60;99.90;;;;;;5106250;28;20218;-69
2023/01/11 04:34:30;;;;;;;3.67;3.00;;;11.50;99.90;;;;;;5108411;28;20203;-69
2023/01/11 04:36:58;;;;;;;4.00;2.87;;;11.50;99.90;;;;;;5091406;28;20211;-70
2023/01/11 04:39:24;;;;;;;4.53;2.90;;;11.60;99.90;;;;;;5109399;28;20195;-69
2023/01/11 04:44:36;;;;;;;3.77;2.70;;;11.60;99.90;;;;;;5104851;28;20235;-69
2023/01/11 04:47:03;;;;;;;4.77;3.03;;;11.60;99.90;;;;;;5091011;28;20211;-69
2023/01/11 04:49:29;;;;;;;4.67;2.73;;;11.60;99.90;;;;;;5085723;28;20199;-69
2023/01/11 04:51:56;;;;;;;4.57;2.53;;;11.60;99.90;;;;;;5106576;28;20204;-69
2023/01/11 04:54:23;;;;;;;3.13;2.60;;;11.60;99.90;;;;;;5109229;27;20199;-69
2023/01/11 04:56:49;;;;;;;3.20;2.30;;;11.60;99.90;;;;;;5106740;28;20660;-69
2023/01/11 04:59:16;;;;;;;2.70;2.20;;;11.60;99.90;;;;;;5108699;28;20195;-69
2023/01/11 05:01:42;;;;;;;4.13;2.30;;;11.60;99.90;;;;;;5106220;28;20207;-69
2023/01/11 05:04:09;;;;;;;3.57;2.13;;;11.60;99.90;;;;;;5107463;28;20314;-69
2023/01/11 05:06:39;;;;;;;4.83;3.10;;;11.60;99.90;;;;;;5108069;28;20195;-69
2023/01/11 05:09:10;;;;;;;6.80;4.10;;;11.60;99.90;;;;;;5108206;28;20191;-69
2023/01/11 05:11:37;;;;;;;9.43;5.50;;;11.60;99.90;;;;;;5106773;28;20352;-69
2023/01/11 05:14:04;;;;;;;10.33;6.47;;;11.60;99.90;;;;;;5109908;28;20235;-69
2023/01/11 05:16:30;;;;;;;8.93;6.20;;;11.60;99.90;;;;;;5106418;28;20208;-68
2023/01/11 05:18:59;;;;;;;13.97;7.53;;;11.70;99.90;;;;;;5104937;28;20230;-68
2023/01/11 05:21:30;;;;;;;14.27;8.10;;;11.60;99.90;;;;;;5106734;28;20571;-68
2023/01/11 05:23:58;;;;;;;14.13;8.13;;;11.70;99.90;;;;;;5105338;28;20319;-70
2023/01/11 05:26:28;;;;;;;13.80;8.70;;;11.70;99.90;;;;;;5107180;28;20286;-69
2023/01/11 05:28:57;;;;;;;16.50;9.20;;;11.70;99.90;;;;;;5105128;28;20222;-69
2023/01/11 05:31:24;;;;;;;15.37;9.70;;;11.70;99.90;;;;;;5106538;28;20219;-70
2023/01/11 05:33:52;;;;;;;17.80;9.07;;;11.60;99.90;;;;;;5106045;28;20211;-70
2023/01/11 05:36:20;;;;;;;12.80;9.03;;;11.70;99.90;;;;;;5087492;28;20199;-69
2023/01/11 05:38:49;;;;;;;19.63;10.20;;;11.70;99.90;;;;;;5105281;28;20200;-71
2023/01/11 05:41:17;;;;;;;16.90;9.37;;;11.70;99.90;;;;;;5085246;28;20205;-69
2023/01/11 05:46:32;;;;;;;18.73;9.40;;;11.60;99.90;;;;;;5106564;28;20219;-70
2023/01/11 05:49:01;;;;;;;17.80;9.07;;;11.60;99.90;;;;;;5089792;28;20338;-70
2023/01/11 05:51:29;;;;;;;18.07;9.60;;;11.60;99.90;;;;;;5108923;28;20238;-70
2023/01/11 05:53:56;;;;;;;17.43;9.77;;;11.60;99.90;;;;;;5103016;28;20206;-69
2023/01/11 05:56:23;;;;;;;19.70;10.90;;;11.60;99.90;;;;;;5107973;28;20278;-71
2023/01/11 05:58:51;;;;;;;23.67;10.47;;;11.60;99.90;;;;;;5106831;28;20251;-70
2023/01/11 06:01:19;;;;;;;21.37;9.60;;;11.60;99.90;;;;;;5106372;28;20256;-69
2023/01/11 06:03:46;;;;;;;25.83;10.27;;;11.70;99.90;;;;;;5107550;28;20199;-70
2023/01/11 06:06:14;;;;;;;24.37;10.90;;;11.60;99.90;;;;;;5108035;28;20282;-70
2023/01/11 06:08:41;;;;;;;23.30;11.03;;;11.60;99.90;;;;;;5107628;28;20195;-70
2023/01/11 06:11:08;;;;;;;26.17;11.70;;;11.60;99.90;;;;;;5105365;28;20203;-70
2023/01/11 06:13:34;;;;;;;21.53;10.83;;;11.60;99.90;;;;;;5105271;28;20280;-69
2023/01/11 06:16:08;;;;;;;21.87;11.07;;;11.60;99.90;;;;;;5105407;28;20227;-69
2023/01/11 06:18:37;;;;;;;19.97;9.80;;;11.70;99.90;;;;;;5107263;28;20224;-68
2023/01/11 06:21:05;;;;;;;26.17;8.70;;;11.60;99.90;;;;;;5088631;28;20231;-68
2023/01/11 06:23:33;;;;;;;25.07;8.73;;;11.50;99.90;;;;;;5104592;28;20233;-68
2023/01/11 06:26:06;;;;;;;23.73;9.13;;;11.50;99.90;;;;;;5102346;28;20234;-68
2023/01/11 06:28:35;;;;;;;21.67;8.37;;;11.50;99.90;;;;;;5107362;28;20306;-68
2023/01/11 06:31:05;;;;;;;18.17;8.43;;;11.50;99.90;;;;;;5106652;28;20211;-69
2023/01/11 06:33:32;;;;;;;21.03;8.20;;;11.50;99.90;;;;;;5110193;28;20203;-70
2023/01/11 06:36:04;;;;;;;22.07;10.40;;;11.50;99.90;;;;;;5109100;28;20299;-69
2023/01/11 06:38:31;;;;;;;21.50;7.97;;;11.50;99.90;;;;;;5107144;28;20208;-69
2023/01/11 06:41:00;;;;;;;23.77;8.03;;;11.40;99.90;;;;;;5109390;28;20667;-70
2023/01/11 06:43:29;;;;;;;22.77;8.80;;;11.40;99.90;;;;;;5110410;27;20195;-69
2023/01/11 06:45:58;;;;;;;28.07;8.83;;;11.40;99.90;;;;;;5090054;27;20234;-69
2023/01/11 06:48:28;;;;;;;19.13;8.23;;;11.40;99.90;;;;;;5106000;28;20307;-69
2023/01/11 06:50:56;;;;;;;26.25;10.77;;;11.30;99.90;;;;;;5109058;28;20435;-69
2023/01/11 06:53:25;;;;;;;24.80;8.87;;;11.70;99.90;;;;;;5104140;28;20211;-69
2023/01/11 06:55:56;;;;;;;25.93;8.37;;;11.60;99.90;;;;;;5106270;28;20208;-69
2023/01/11 06:58:24;;;;;;;21.77;7.57;;;11.50;99.90;;;;;;5107556;28;20219;-69
2023/01/11 07:00:52;;;;;;;29.97;8.00;;;11.40;99.90;;;;;;5104602;28;20878;-68
2023/01/11 07:03:20;;;;;;;22.97;7.40;;;11.40;99.90;;;;;;5111486;28;20544;-69
2023/01/11 07:05:46;;;;;;;21.30;7.40;;;11.40;99.90;;;;;;5105156;28;20219;-68
2023/01/11 07:08:13;;;;;;;25.57;7.03;;;11.40;99.90;;;;;;5111780;27;20241;-68
2023/01/11 07:10:42;;;;;;;17.70;6.27;;;11.40;99.90;;;;;;5110472;28;20288;-68
2023/01/11 07:13:10;;;;;;;19.77;6.90;;;11.30;99.90;;;;;;5107587;28;20275;-68
2023/01/11 07:15:37;;;;;;;26.17;6.57;;;11.30;99.90;;;;;;5093590;28;20211;-69
2023/01/11 07:18:04;;;;;;;24.20;7.30;;;11.30;99.90;;;;;;5110492;28;20222;-68
2023/01/11 07:20:31;;;;;;;30.37;7.33;;;11.30;99.90;;;;;;5110194;28;20249;-68
2023/01/11 07:22:59;;;;;;;20.90;6.10;;;11.20;99.90;;;;;;5110824;28;20389;-68
2023/01/11 07:25:26;;;;;;;18.17;6.03;;;11.20;99.90;;;;;;5108677;28;20289;-69
2023/01/11 07:28:02;;;;;;;23.07;5.67;;;11.20;99.90;;;;;;5109669;28;20195;-68
2023/01/11 07:30:31;;;;;;;30.93;5.87;;;11.20;99.90;;;;;;5111462;28;20653;-69
2023/01/11 07:32:59;;;;;;;20.87;5.67;;;11.10;99.90;;;;;;5108370;28;20294;-68
2023/01/11 07:35:28;;;;;;;21.70;6.63;;;11.10;99.90;;;;;;5106422;28;20204;-68
2023/01/11 07:37:58;;;;;;;21.53;5.83;;;11.10;99.90;;;;;;5110732;27;20205;-68
2023/01/11 07:40:24;;;;;;;23.50;6.17;;;11.00;99.90;;;;;;5107779;28;20199;-69
2023/01/11 07:43:13;;;;;;;22.90;5.33;;;11.00;99.90;;;;;;5108907;28;20209;-69
2023/01/11 07:45:46;;;;;;;23.83;7.37;;;11.00;99.90;;;;;;5105532;28;20222;-68
2023/01/11 07:48:19;;;;;;;23.43;4.87;;;10.90;99.90;;;;;;5105760;28;20263;-69
2023/01/11 07:50:47;;;;;;;26.57;5.10;;;11.20;99.90;;;;;;5103347;28;20232;-69
2023/01/11 07:53:13;;;;;;;18.50;4.83;;;10.80;99.90;;;;;;5103024;28;20291;-68
2023/01/11 07:55:40;;;;;;;22.87;5.03;;;10.80;99.90;;;;;;5102571;28;20238;-68
2023/01/11 07:58:11;;;;;;;22.20;4.97;;;10.70;99.90;;;;;;5104161;28;20191;-68
2023/01/11 08:00:39;;;;;;;20.03;5.50;;;10.70;99.90;;;;;;5109945;28;20739;-69
2023/01/11 08:03:06;;;;;;;25.67;3.90;;;10.70;99.90;;;;;;5086002;28;20218;-68
2023/01/11 08:05:33;;;;;;;23.53;5.53;;;10.60;99.90;;;;;;5107471;28;20289;-68
2023/01/11 08:08:00;;;;;;;17.27;4.30;;;10.60;99.90;;;;;;5107122;28;20286;-68
2023/01/11 08:10:27;;;;;;;16.10;4.80;;;10.50;99.90;;;;;;5106931;28;20203;-68
2023/01/11 08:15:42;;;;;;;23.43;5.57;;;10.40;99.90;;;;;;5104157;28;20285;-69
2023/01/11 08:18:11;;;;;;;20.90;4.40;;;10.40;99.90;;;;;;5106621;28;20262;-69
2023/01/11 08:20:38;;;;;;;23.00;4.83;;;10.40;99.90;;;;;;5107413;28;20226;-68
2023/01/11 08:23:07;;;;;;;17.40;4.23;;;10.40;99.90;;;;;;5110313;28;20582;-67
2023/01/11 08:25:34;;;;;;;12.07;3.33;;;10.40;99.90;;;;;;5107211;28;20314;-68
2023/01/11 08:28:04;;;;;;;16.37;4.90;;;10.30;99.90;;;;;;5088086;28;20202;-69
2023/01/11 08:30:31;;;;;;;17.40;3.27;;;10.30;99.90;;;;;;5110296;28;20310;-69
2023/01/11 08:33:00;;;;;;;19.50;3.90;;;10.30;99.90;;;;;;5107147;28;20675;-68
2023/01/11 08:35:27;;;;;;;17.93;3.63;;;10.30;99.90;;;;;;5101188;28;20660;-68
2023/01/11 08:37:54;;;;;;;13.23;3.63;;;10.30;99.90;;;;;;5107115;28;20195;-69
2023/01/11 08:40:21;;;;;;;16.30;3.50;;;10.30;99.90;;;;;;5108829;28;20479;-68
2023/01/11 08:42:54;;;;;;;15.33;3.50;;;10.30;99.90;;;;;;5107077;28;20680;-69
2023/01/11 08:45:21;;;;;;;17.97;3.63;;;10.30;99.90;;;;;;5103933;28;20223;-69
2023/01/11 08:47:49;;;;;;;19.83;3.80;;;10.20;99.90;;;;;;5088481;28;20210;-68
2023/01/11 08:50:17;;;;;;;13.63;3.30;;;10.20;99.90;;;;;;5110221;28;20211;-69
2023/01/11 08:52:45;;;;;;;15.47;4.03;;;10.20;99.90;;;;;;5104241;28;20203;-69
2023/01/11 08:55:11;;;;;;;16.43;3.50;;;10.20;99.90;;;;;;5088294;28;20195;-69
2023/01/11 08:57:38;;;;;;;19.23;3.60;;;10.20;99.90;;;;;;5107596;28;20298;-69
2023/01/11 09:00:07;;;;;;;19.30;3.53;;;10.20;99.90;;;;;;5109230;28;20294;-68
2023/01/11 09:02:34;;;;;;;15.40;3.57;;;10.20;99.90;;;;;;5101976;28;20222;-68
2023/01/11 09:05:00;;;;;;;21.73;3.70;;;10.20;99.90;;;;;;5101235;28;20736;-68
2023/01/11 09:07:27;;;;;;;21.20;4.17;;;10.10;99.90;;;;;;5086695;28;20834;-68
2023/01/11 09:09:54;;;;;;;20.90;3.57;;;10.10;99.90;;;;;;5104375;28;20692;-68
2023/01/11 09:12:20;;;;;;;17.97;4.47;;;10.10;99.90;;;;;;5103742;28;20673;-69
2023/01/11 09:14:50;;;;;;;14.57;3.50;;;10.10;99.90;;;;;;5104839;28;20298;-68
2023/01/11 09:17:17;;;;;;;18.90;3.53;;;10.10;99.90;;;;;;5105274;28;20230;-69
2023/01/11 09:19:45;;;;;;;16.40;3.23;;;10.10;99.90;;;;;;5089790;28;20227;-68
2023/01/11 09:22:13;;;;;;;17.03;3.47;;;10.10;99.90;;;;;;5087877;28;20227;-67
2023/01/11 09:24:40;;;;;;;24.10;4.27;;;10.10;99.90;;;;;;5068752;28;20218;-68
2023/01/11 09:27:06;;;;;;;19.70;4.30;;;10.10;99.90;;;;;;5082500;28;20205;-68
2023/01/11 09:29:33;;;;;;;18.90;3.43;;;10.10;99.90;;;;;;5068765;28;20192;-69
2023/01/11 09:32:06;;;;;;;16.50;3.40;;;10.10;99.90;;;;;;5070267;28;20646;-69
2023/01/11 09:34:33;;;;;;;15.73;3.57;;;10.10;99.90;;;;;;5069129;28;20204;-69
2023/01/11 09:37:02;;;;;;;21.80;3.57;;;10.10;99.90;;;;;;5069305;28;20210;-68
2023/01/11 09:39:29;;;;;;;23.00;3.73;;;10.10;99.90;;;;;;5069319;28;20652;-68
2023/01/11 09:42:05;;;;;;;20.73;3.47;;;10.00;99.90;;;;;;5087441;28;20261;-68
2023/01/11 09:44:35;;;;;;;14.17;3.80;;;10.00;99.90;;;;;;5085171;28;20283;-68
2023/01/11 09:47:39;;;;;;;23.87;4.43;;;10.00;99.90;;;;;;5087188;28;20710;-68
2023/01/11 09:50:17;;;;;;;21.20;3.37;;;10.00;99.90;;;;;;5087166;28;20253;-68
2023/01/11 09:52:50;;;;;;;19.70;3.77;;;9.90;99.90;;;;;;5087826;28;20194;-69
2023/01/11 09:55:23;;;;;;;19.40;4.27;;;9.80;99.90;;;;;;5086260;28;20217;-69
2023/01/11 09:58:01;;;;;;;21.70;4.20;;;9.80;99.90;;;;;;5084478;28;20192;-69
2023/01/11 10:00:51;;;;;;;14.30;3.60;;;9.70;99.90;;;;;;5087486;28;20654;-69
2023/01/11 10:03:42;;;;;;;18.23;3.03;;;9.60;99.90;;;;;;5085402;28;20207;-68
2023/01/11 10:06:18;;;;;;;22.03;3.63;;;9.60;99.90;;;;;;5089961;28;20227;-69
2023/01/11 10:09:30;;;;;;;24.80;3.93;;;9.60;99.90;;;;;;5089424;28;20207;-68
2023/01/11 10:13:03;;;;;;;22.93;4.70;;;9.50;99.90;;;;;;5056878;28;20218;-69
2023/01/11 10:16:13;;;;;;;20.37;4.63;;;9.50;99.90;;;;;;5074049;28;20207;-69
2023/01/11 10:19:13;;;;;;;21.17;4.10;;;9.50;99.90;;;;;;5085184;28;20230;-68
2023/01/11 10:22:31;;;;;;;26.77;4.37;;;9.50;99.90;;;;;;5085352;28;20199;-67
2023/01/11 10:25:29;;;;;;;28.20;5.53;;;9.50;99.90;;;;;;5084214;28;20713;-69
2023/01/11 10:28:05;;;;;;;29.60;4.60;;;9.60;99.90;;;;;;5087517;28;20304;-68
2023/01/11 10:33:48;;;;;;;16.37;4.43;;;9.80;99.90;;;;;;5090284;28;20204;-69
2023/01/11 10:36:50;;;;;;;24.07;5.63;;;9.80;99.90;;;;;;5088119;28;20199;-68
2023/01/11 10:42:24;;;;;;;19.63;4.30;;;10.00;99.90;;;;;;5083555;28;20226;-68
2023/01/11 10:44:59;;;;;;;17.70;4.63;;;10.10;99.90;;;;;;5088994;28;20228;-68
2023/01/11 10:47:36;;;;;;;26.77;5.07;;;10.10;99.90;;;;;;5072935;28;20300;-68
2023/01/11 10:50:15;;;;;;;23.73;4.87;;;10.10;99.90;;;;;;5073914;28;20214;-69
2023/01/11 10:52:54;;;;;;;20.00;4.67;;;10.10;99.90;;;;;;5091362;28;20223;-69
2023/01/11 10:55:40;;;;;;;18.57;4.60;;;10.20;99.90;;;;;;5084389;28;20239;-69
2023/01/11 10:58:29;;;;;;;18.83;4.40;;;10.20;99.90;;;;;;5092627;28;20729;-68
2023/01/11 11:01:11;;;;;;;24.33;4.87;;;10.20;99.90;;;;;;5089165;28;20192;-69
2023/01/11 11:03:59;;;;;;;14.17;3.90;;;10.20;99.90;;;;;;5091118;28;20573;-68
2023/01/11 11:06:49;;;;;;;15.90;4.13;;;10.20;99.90;;;;;;5088132;28;20699;-69
2023/01/11 11:09:35;;;;;;;18.23;4.93;;;10.20;99.90;;;;;;5090214;28;20644;-69
2023/01/11 11:12:12;;;;;;;18.40;4.43;;;10.20;99.90;;;;;;5090815;28;20283;-68
2023/01/11 11:14:51;;;;;;;22.40;5.00;;;10.20;99.90;;;;;;5085371;28;20598;-69
2023/01/11 11:17:41;;;;;;;14.33;4.43;;;10.30;99.90;;;;;;5088721;28;20300;-69
2023/01/11 11:20:17;;;;;;;27.00;5.43;;;10.30;99.90;;;;;;5087490;28;20279;-69
2023/01/11 11:22:44;;;;;;;21.80;5.23;;;10.40;99.90;;;;;;5091327;28;20210;-69
2023/01/11 11:25:33;;;;;;;19.37;6.53;;;10.40;99.90;;;;;;5073935;28;20235;-69
2023/01/11 11:28:04;;;;;;;20.30;5.77;;;10.40;99.90;;;;;;5084769;28;20565;-68
2023/01/11 11:30:36;;;;;;;31.83;7.67;;;10.40;99.90;;;;;;5072723;28;20260;-68
2023/01/11 11:33:13;;;;;;;17.73;5.97;;;10.30;99.90;;;;;;5091043;28;20211;-68
2023/01/11 11:35:53;;;;;;;26.43;6.50;;;10.30;99.90;;;;;;5069577;28;20704;-69
2023/01/11 11:38:27;;;;;;;22.97;6.70;;;10.20;99.90;;;;;;5067405;28;20261;-68
2023/01/11 11:41:03;;;;;;;27.67;7.73;;;10.20;99.90;;;;;;5074246;28;20212;-68
2023/01/11 11:43:32;;;;;;;27.13;6.20;;;10.20;99.90;;;;;;5069742;28;20231;-68
2023/01/11 11:46:01;;;;;;;23.23;6.63;;;10.10;99.90;;;;;;5090619;28;20224;-68
2023/01/11 11:48:33;;;;;;;20.77;6.60;;;10.10;99.90;;;;;;5091553;28;20207;-69
2023/01/11 11:51:03;;;;;;;21.80;5.17;;;10.10;99.90;;;;;;5071824;28;20241;-69
2023/01/11 11:53:35;;;;;;;17.50;4.93;;;10.10;99.90;;;;;;5091250;28;20200;-68
2023/01/11 11:56:14;;;;;;;23.17;5.10;;;10.10;99.90;;;;;;5091792;28;20261;-68
2023/01/11 11:58:42;;;;;;;32.93;4.77;;;10.10;99.90;;;;;;5088703;28;20200;-68
2023/01/11 12:01:24;;;;;;;24.37;5.53;;;10.10;99.90;;;;;;5087915;28;20699;-68
2023/01/11 12:03:56;;;;;;;21.10;4.63;;;10.10;99.90;;;;;;5090721;28;20207;-68
2023/01/11 12:06:26;;;;;;;20.27;4.10;;;10.20;99.90;;;;;;5071104;28;20232;-69
2023/01/11 12:08:55;;;;;;;16.13;5.60;;;10.30;99.90;;;;;;5091134;28;20194;-69
2023/01/11 12:11:33;;;;;;;14.80;3.90;;;10.40;99.90;;;;;;5090982;28;20672;-69
2023/01/11 12:14:27;;;;;;;21.93;4.33;;;10.40;99.90;;;;;;5089766;28;20656;-69
2023/01/11 12:16:57;;;;;;;18.20;3.97;;;10.40;99.90;;;;;;5090860;28;20295;-68
2023/01/11 12:19:25;;;;;;;25.83;4.63;;;10.50;99.90;;;;;;5088497;28;20262;-69
2023/01/11 12:21:52;;;;;;;19.00;4.13;;;10.50;99.90;;;;;;5090047;28;20227;-69
2023/01/11 12:24:19;;;;;;;15.80;3.37;;;10.50;99.90;;;;;;5089887;28;20292;-68
2023/01/11 12:27:08;;;;;;;22.57;4.13;;;10.60;99.90;;;;;;5086652;28;20274;-69
2023/01/11 12:30:19;;;;;;;18.23;4.63;;;10.60;99.90;;;;;;5085297;28;20706;-68
2023/01/11 12:33:10;;;;;;;20.63;4.23;;;10.50;99.90;;;;;;5086452;28;20291;-68
2023/01/11 12:35:50;;;;;;;15.33;3.80;;;10.40;99.90;;;;;;5086463;28;20286;-68
2023/01/11 12:38:34;;;;;;;21.40;4.23;;;10.40;99.90;;;;;;5087945;28;20239;-68
2023/01/11 12:41:12;;;;;;;18.10;4.10;;;10.30;99.90;;;;;;5090210;28;20206;-68
2023/01/11 12:44:05;;;;;;;12.03;3.47;;;10.30;99.90;;;;;;5088923;28;20290;-68
2023/01/11 12:46:55;;;;;;;14.60;3.40;;;10.30;99.90;;;;;;5070727;28;20234;-69
2023/01/11 12:49:38;;;;;;;17.20;3.43;;;10.20;99.90;;;;;;5087198;28;20208;-68
2023/01/11 12:52:43;;;;;;;12.00;3.03;;;10.20;99.90;;;;;;5087379;28;20203;-69
2023/01/11 12:55:31;;;;;;;19.40;3.43;;;10.20;99.90;;;;;;5085151;28;20200;-68
2023/01/11 12:58:10;;;;;;;13.97;3.17;;;10.20;99.90;;;;;;5087356;28;20310;-69
2023/01/11 13:00:54;;;;;;;23.83;3.90;;;10.20;99.90;;;;;;5089721;28;20200;-68
2023/01/11 13:03:32;;;;;;;18.90;3.27;;;10.20;99.90;;;;;;5085700;28;20574;-68
2023/01/11 13:06:12;;;;;;;19.73;3.53;;;10.30;99.90;;;;;;5084352;28;20312;-69
2023/01/11 13:08:53;;;;;;;14.80;4.13;;;10.30;99.90;;;;;;5067536;28;20748;-68
2023/01/11 13:11:51;;;;;;;15.83;3.80;;;10.30;99.90;;;;;;5070129;28;20242;-68
2023/01/11 13:14:39;;;;;;;17.73;3.33;;;10.40;99.90;;;;;;5089390;28;20210;-69
2023/01/11 13:17:24;;;;;;;16.50;4.27;;;10.40;99.90;;;;;;5072183;28;20223;-68
2023/01/11 13:20:08;;;;;;;13.50;3.10;;;10.40;99.90;;;;;;5087028;28;20219;-68
2023/01/11 13:22:40;;;;;;;17.43;3.80;;;10.30;99.90;;;;;;5086791;28;20294;-69
2023/01/11 13:25:16;;;;;;;16.80;3.90;;;10.30;99.90;;;;;;5083918;28;20676;-68
2023/01/11 13:27:45;;;;;;;16.83;3.10;;;10.40;99.90;;;;;;5086732;28;20334;-68
2023/01/11 13:30:16;;;;;;;15.70;3.33;;;10.30;99.90;;;;;;5083488;28;20703;-68
2023/01/11 13:32:59;;;;;;;17.83;3.60;;;10.40;99.90;;;;;;5088961;28;20302;-69
2023/01/11 13:35:42;;;;;;;16.43;3.63;;;10.50;99.90;;;;;;5067747;28;20274;-68
2023/01/11 13:38:23;;;;;;;11.83;3.20;;;10.60;99.90;;;;;;5087994;28;20206;-68